Wrights, IL (62098)

2:21 PM CDT on July 01, 2015 (GMT -0500)
Weather Station 62694 | | Change Station
CLOSE
Current Station
Personal Weather Station
Location: Winchester, IL
Elevation: 548 ft
Nearby Weather Stations
Active Advisory: Flood Warning

Elev 548 ft 39.63 °N, 90.45 °W | Updated 1 minute ago

Partly Cloudy
Partly Cloudy
82.8 °F
Feels Like 89 °F
N
5.4
Wind Variable Wind from South
Gusts 7.6 mph

Today
High -- | Low -- °F
--% Chance of Precip.
Yesterday
High -- | Low -- °F
Precip. -- in
5:37 AM 8:31 PM
Full, 100% visible
Pressure 29.88 in
Visibility 10.0 miles
Clouds Scattered Clouds 5000 ft
Mostly Cloudy 7000 ft
Heat Index 89 °F
Dew Point 74 °F
Humidity 75%
Rainfall 0.00 in
Snow Depth Not available.
UV 6 out of 12
Pollen .60 out of 12
Air Quality Not available.
Flu Activity Not available.
METAR KIJX 011915Z AUTO 00000KT 10SM SCT050 BKN070 28/20 A2988 RMK AO2 T02750202

More Conditions Fewer Conditions

Pressure 29.88 in
Visibility 10.0 miles
Clouds Scattered Clouds 5000 ft
Mostly Cloudy 7000 ft
Heat Index 89 °F
Dew Point 74 °F
Humidity 75%
Rainfall 0.00 in
Snow Depth Not available.
UV 6 out of 12
Pollen .60 out of 12
Air Quality Not available.
Flu Activity Not available.
METAR KIJX 011915Z AUTO 00000KT 10SM SCT050 BKN070 28/20 A2988 RMK AO2 T02750202

More Conditions Fewer Conditions

10-Day Weather Forecast

×

Almanac

Astronomy

Jul. 01, 2015 Rise Set
Actual Time
Civil Twilight
Nautical Twilight
Astronomical Twilight
Moon
Length of Visible Light
Length of Day
Tomorrow will be .
, % of the Moon is Illuminated

Today's Extremes

State Highs State Lows

Community

WunderPhotos

Upload Photos

1,834,245 photos uploaded!

WunderBlogs® & News

Nearby

Air Quality

  Air Quality AQ Index Pollutant
Not available.

Snow Depth

Station Depth Elevation

Earthquake Activity

City Distance Mag. Time & Date
Minimum magnitude displayed is 2.5.

Coastal Water Temperatures

Place Temperature

Stations

Nearby Weather Stations

Station Location Temp. Windchill Dew Point Humidity Wind Precip. Elev Updated Type
                   
Flood Warning
Statement as of 1:08 PM CDT on July 01, 2015

The Flood Warning continues for
the Illinois River at Hardin
* until further notice.
* At 12 PM Wednesday the stage was 36.4 feet.
* Flood stage is 25.0 feet.
* Major flooding is occurring and major flooding is forecast.
* Forecast: the river is forecast to fall to near 32 feet by next Wednesday July 8th.

                   Fld latest 7 a.M. Forecast
location stg obs stg 07/02 07/03 07/04 07/05 07/06

Illinois River
Hardin 25.0 36.39 36.2 35.9 35.4 34.7 33.9



Lat... Lon 3952 9064 3952 9052 3898 9048 3891 9054 3903 9062